createdAt,value
2022-10-26T00:00:02.951Z,2.70
2022-10-26T00:00:15.907Z,2.80
2022-10-26T00:00:28.129Z,2.80
2022-10-26T00:00:42.932Z,2.70
2022-10-26T00:00:56.141Z,2.60
2022-10-26T00:01:07.967Z,2.70
2022-10-26T00:01:19.860Z,2.50
2022-10-26T00:01:32.448Z,2.70
2022-10-26T00:01:43.495Z,2.70
2022-10-26T00:01:54.432Z,2.20
2022-10-26T00:02:05.289Z,2.30
2022-10-26T00:02:17.329Z,2.30
2022-10-26T00:02:28.159Z,2.50
2022-10-26T00:02:39.864Z,2.70
2022-10-26T00:02:52.523Z,2.40
2022-10-26T00:03:03.455Z,2.30
2022-10-26T00:03:15.172Z,2.30
2022-10-26T00:03:27.407Z,2.40
2022-10-26T00:03:38.202Z,2.60
2022-10-26T00:03:49.899Z,2.80
2022-10-26T00:04:00.707Z,2.60
2022-10-26T00:04:11.489Z,2.40
2022-10-26T00:04:23.267Z,2.50
2022-10-26T00:04:34.031Z,2.60
2022-10-26T00:04:44.790Z,2.40
2022-10-26T00:04:55.573Z,2.60
2022-10-26T00:05:07.290Z,2.90
2022-10-26T00:05:18.164Z,2.70
2022-10-26T00:05:29.881Z,2.40
2022-10-26T00:05:40.633Z,2.20
2022-10-26T00:05:51.360Z,2.50
2022-10-26T00:06:02.102Z,2.80
2022-10-26T00:06:14.331Z,2.60
2022-10-26T00:06:26.558Z,2.20
2022-10-26T00:06:38.991Z,2.30
2022-10-26T00:06:49.773Z,2.50
2022-10-26T00:07:00.562Z,2.30
2022-10-26T00:07:11.311Z,2.00
2022-10-26T00:07:22.050Z,2.10
2022-10-26T00:07:32.828Z,2.40
2022-10-26T00:07:43.573Z,2.70
2022-10-26T00:07:55.173Z,2.70
2022-10-26T00:08:06.874Z,2.60
2022-10-26T00:08:19.302Z,2.40
2022-10-26T00:08:31.022Z,2.60
2022-10-26T00:08:41.761Z,2.70
2022-10-26T00:08:54.722Z,2.80
2022-10-26T00:09:06.421Z,2.40
2022-10-26T00:09:17.171Z,2.20
2022-10-26T00:09:27.922Z,2.20
2022-10-26T00:09:38.692Z,2.50
2022-10-26T00:09:50.383Z,2.60
2022-10-26T00:10:01.120Z,2.60
2022-10-26T00:10:11.841Z,2.60
2022-10-26T00:10:22.592Z,2.20
2022-10-26T00:10:33.414Z,2.40
2022-10-26T00:10:44.181Z,2.30
2022-10-26T00:10:56.844Z,2.40
2022-10-26T00:11:08.580Z,2.30
2022-10-26T00:11:19.418Z,2.50
2022-10-26T00:11:30.223Z,2.50
2022-10-26T00:11:41.037Z,2.60
2022-10-26T00:11:52.803Z,2.30
2022-10-26T00:12:03.581Z,2.30
2022-10-26T00:12:14.356Z,2.30
2022-10-26T00:12:25.081Z,2.60
2022-10-26T00:12:36.773Z,2.70
2022-10-26T00:12:48.730Z,2.60
2022-10-26T00:13:01.320Z,2.20
2022-10-26T00:13:13.065Z,2.20
2022-10-26T00:13:23.841Z,2.40
2022-10-26T00:13:36.003Z,2.60
2022-10-26T00:13:48.502Z,2.70
2022-10-26T00:14:00.173Z,2.50
2022-10-26T00:14:10.926Z,2.40
2022-10-26T00:14:21.685Z,2.30
2022-10-26T00:14:32.436Z,2.50
2022-10-26T00:14:43.223Z,2.40
2022-10-26T00:14:53.971Z,2.40
2022-10-26T00:15:05.683Z,2.30
2022-10-26T00:15:16.454Z,2.30
2022-10-26T00:15:27.214Z,2.60
2022-10-26T00:15:37.974Z,2.60
2022-10-26T00:15:50.544Z,2.80
2022-10-26T00:16:01.374Z,2.70
2022-10-26T00:16:13.136Z,2.60
2022-10-26T00:16:23.894Z,2.80
2022-10-26T00:16:34.665Z,2.70
2022-10-26T00:16:45.415Z,2.70
2022-10-26T00:16:56.145Z,2.60
2022-10-26T00:17:06.865Z,2.50
2022-10-26T00:17:17.625Z,2.40
2022-10-26T00:17:28.384Z,2.20
2022-10-26T00:17:40.834Z,2.50
2022-10-26T00:17:51.889Z,2.60
2022-10-26T00:18:04.425Z,2.50
2022-10-26T00:18:15.167Z,2.60
2022-10-26T00:18:25.953Z,2.40
2022-10-26T00:18:36.705Z,2.70
2022-10-26T00:18:47.458Z,2.70
2022-10-26T00:18:58.235Z,2.60
2022-10-26T00:19:08.969Z,2.50
2022-10-26T00:19:22.680Z,2.60
2022-10-26T00:19:33.404Z,2.50
2022-10-26T00:19:45.865Z,2.40
2022-10-26T00:19:56.596Z,2.60
2022-10-26T00:20:07.346Z,2.70
2022-10-26T00:20:18.089Z,2.70
2022-10-26T00:20:28.806Z,2.60
2022-10-26T00:20:39.575Z,2.50
2022-10-26T00:20:50.331Z,2.50
2022-10-26T00:21:02.759Z,2.40
2022-10-26T00:21:13.504Z,2.40
2022-10-26T00:21:25.279Z,2.50
2022-10-26T00:21:38.491Z,2.70
2022-10-26T00:21:50.769Z,2.60
2022-10-26T00:22:03.720Z,2.60
2022-10-26T00:22:14.489Z,2.60
2022-10-26T00:22:26.950Z,2.50
2022-10-26T00:22:39.440Z,2.70
2022-10-26T00:22:50.218Z,2.80
2022-10-26T00:23:03.178Z,2.80
2022-10-26T00:23:13.909Z,2.40
2022-10-26T00:23:26.338Z,2.10
2022-10-26T00:23:37.087Z,2.10
2022-10-26T00:23:47.853Z,2.50
2022-10-26T00:23:59.537Z,2.80
2022-10-26T00:24:10.330Z,2.90
2022-10-26T00:24:22.505Z,3.00
2022-10-26T00:24:33.234Z,3.00
2022-10-26T00:24:44.969Z,3.20
2022-10-26T00:24:55.761Z,2.90
2022-10-26T00:25:07.468Z,2.60
2022-10-26T00:25:18.197Z,2.40
2022-10-26T00:25:28.938Z,2.30
2022-10-26T00:25:41.350Z,2.40
2022-10-26T00:25:52.100Z,2.70
2022-10-26T00:26:02.839Z,2.60
2022-10-26T00:26:14.566Z,2.30
2022-10-26T00:26:26.298Z,2.10
2022-10-26T00:26:38.727Z,2.30
2022-10-26T00:26:49.482Z,2.60
2022-10-26T00:27:00.217Z,2.80
2022-10-26T00:27:12.648Z,2.60
2022-10-26T00:27:24.644Z,2.70
2022-10-26T00:27:35.372Z,2.50
2022-10-26T00:27:46.323Z,2.40
2022-10-26T00:27:57.141Z,2.20
2022-10-26T00:28:10.342Z,2.30
2022-10-26T00:28:21.140Z,2.50
2022-10-26T00:28:33.579Z,2.50
2022-10-26T00:28:44.307Z,2.60
2022-10-26T00:28:55.050Z,2.60
2022-10-26T00:29:05.770Z,2.70
2022-10-26T00:29:16.541Z,2.90
2022-10-26T00:29:29.251Z,2.90
2022-10-26T00:29:41.732Z,2.60
2022-10-26T00:29:53.694Z,2.70
2022-10-26T00:30:04.427Z,2.80
2022-10-26T00:30:15.169Z,2.90
2022-10-26T00:30:25.930Z,2.80
2022-10-26T00:30:36.650Z,2.80
2022-10-26T00:30:47.423Z,2.80
2022-10-26T00:30:58.178Z,2.70
2022-10-26T00:31:09.930Z,2.30
2022-10-26T00:31:22.380Z,2.20
2022-10-26T00:31:34.136Z,2.40
2022-10-26T00:31:45.879Z,2.60
2022-10-26T00:31:56.678Z,2.60
2022-10-26T00:32:07.453Z,2.60
2022-10-26T00:32:18.252Z,2.70
2022-10-26T00:32:29.068Z,2.50
2022-10-26T00:32:41.755Z,2.20
2022-10-26T00:32:52.521Z,2.20
2022-10-26T00:33:04.968Z,2.50
2022-10-26T00:33:15.722Z,3.00
2022-10-26T00:33:26.479Z,2.90
2022-10-26T00:33:37.211Z,2.60
2022-10-26T00:33:49.442Z,2.30
2022-10-26T00:34:00.231Z,2.30
2022-10-26T00:34:10.961Z,2.30
2022-10-26T00:34:21.697Z,2.20
2022-10-26T00:34:32.481Z,2.40
2022-10-26T00:34:43.273Z,2.40
2022-10-26T00:34:54.010Z,2.40
2022-10-26T00:35:15.846Z,2.30
2022-10-26T00:35:23.909Z,2.50
2022-10-26T00:35:45.648Z,2.40
2022-10-26T00:35:52.611Z,2.40
2022-10-26T00:36:03.359Z,2.20
2022-10-26T00:36:14.132Z,2.30
2022-10-26T00:36:25.872Z,2.40
2022-10-26T00:36:36.612Z,2.40
2022-10-26T00:36:47.403Z,2.60
2022-10-26T00:36:59.846Z,2.60
2022-10-26T00:37:10.582Z,2.50
2022-10-26T00:37:21.352Z,2.50
2022-10-26T00:37:32.114Z,2.40
2022-10-26T00:37:43.851Z,2.60
2022-10-26T00:37:54.640Z,2.60
2022-10-26T00:38:05.362Z,2.70
2022-10-26T00:38:16.123Z,2.50
2022-10-26T00:38:28.553Z,2.60
2022-10-26T00:38:40.962Z,2.30
2022-10-26T00:38:51.753Z,2.40
2022-10-26T00:39:02.513Z,2.40
2022-10-26T00:39:13.249Z,2.50
2022-10-26T00:39:24.003Z,2.40
2022-10-26T00:39:34.733Z,2.60
2022-10-26T00:39:45.551Z,2.60
2022-10-26T00:39:59.243Z,2.40
2022-10-26T00:40:11.685Z,2.30
2022-10-26T00:40:22.424Z,2.60
2022-10-26T00:40:33.145Z,2.80
2022-10-26T00:40:43.956Z,2.60
2022-10-26T00:40:54.742Z,2.40
2022-10-26T00:41:06.463Z,2.30
2022-10-26T00:41:17.214Z,2.50
2022-10-26T00:41:27.975Z,2.40
2022-10-26T00:41:39.728Z,2.30
2022-10-26T00:41:51.446Z,2.40
2022-10-26T00:42:02.205Z,2.50
2022-10-26T00:42:13.014Z,2.40
2022-10-26T00:42:25.957Z,2.30
2022-10-26T00:42:38.665Z,2.20
2022-10-26T00:42:51.401Z,2.70
2022-10-26T00:43:02.334Z,2.70
2022-10-26T00:43:14.835Z,2.50
2022-10-26T00:43:26.535Z,2.30
2022-10-26T00:43:39.735Z,2.40
2022-10-26T00:43:50.504Z,2.50
2022-10-26T00:44:03.726Z,2.60
2022-10-26T00:44:16.675Z,2.50
2022-10-26T00:44:29.276Z,2.40
2022-10-26T00:44:42.855Z,2.20
2022-10-26T00:44:54.555Z,2.50
2022-10-26T00:45:05.325Z,2.60
2022-10-26T00:45:16.076Z,2.60
2022-10-26T00:45:26.845Z,2.70
2022-10-26T00:45:37.595Z,2.60
2022-10-26T00:45:49.807Z,2.40
2022-10-26T00:46:00.559Z,2.50
2022-10-26T00:46:13.109Z,2.70
2022-10-26T00:46:25.322Z,2.70
2022-10-26T00:46:37.734Z,2.40
2022-10-26T00:46:49.936Z,2.60
2022-10-26T00:47:00.697Z,2.50
2022-10-26T00:47:13.125Z,2.30
2022-10-26T00:47:23.857Z,2.20
2022-10-26T00:47:34.615Z,2.30
2022-10-26T00:47:46.557Z,2.20
2022-10-26T00:47:57.296Z,2.40
2022-10-26T00:48:08.997Z,2.50
2022-10-26T00:48:21.447Z,2.50
2022-10-26T00:48:32.206Z,2.60
2022-10-26T00:48:43.885Z,2.80
2022-10-26T00:48:54.647Z,3.00
2022-10-26T00:49:05.473Z,2.60
2022-10-26T00:49:17.206Z,2.60
2022-10-26T00:49:27.939Z,2.60
2022-10-26T00:49:38.695Z,2.60
2022-10-26T00:49:49.457Z,2.50
2022-10-26T00:50:00.232Z,2.40
2022-10-26T00:50:11.907Z,2.30
2022-10-26T00:50:23.647Z,2.60
2022-10-26T00:50:34.429Z,2.60
2022-10-26T00:50:45.169Z,2.50
2022-10-26T00:50:57.867Z,2.60
2022-10-26T00:51:10.789Z,2.50
2022-10-26T00:51:21.570Z,2.50
2022-10-26T00:51:32.341Z,2.50
2022-10-26T00:51:43.137Z,2.50
2022-10-26T00:51:55.588Z,2.50
2022-10-26T00:52:06.328Z,2.60
2022-10-26T00:52:18.038Z,2.60
2022-10-26T00:52:28.769Z,2.40
2022-10-26T00:52:39.537Z,2.40
2022-10-26T00:52:51.504Z,2.30
2022-10-26T00:53:05.116Z,2.30
2022-10-26T00:53:15.888Z,2.30
2022-10-26T00:53:26.679Z,2.30
2022-10-26T00:53:38.420Z,2.30
2022-10-26T00:53:49.208Z,2.30
2022-10-26T00:54:00.898Z,2.30
2022-10-26T00:54:12.859Z,2.50
2022-10-26T00:54:23.652Z,2.50
2022-10-26T00:54:35.354Z,2.30
2022-10-26T00:54:47.089Z,2.10
2022-10-26T00:55:00.302Z,2.20
2022-10-26T00:55:11.058Z,2.20
2022-10-26T00:55:23.490Z,2.20
2022-10-26T00:55:35.217Z,2.10
2022-10-26T00:55:46.900Z,2.20
2022-10-26T00:55:57.708Z,2.20
2022-10-26T00:56:08.446Z,2.30
2022-10-26T00:56:19.251Z,2.10
2022-10-26T00:56:31.060Z,2.30
2022-10-26T00:56:42.061Z,2.20
2022-10-26T00:56:52.820Z,2.20
2022-10-26T00:57:03.569Z,2.30
2022-10-26T00:57:15.781Z,2.40
2022-10-26T00:57:27.999Z,2.50
2022-10-26T00:57:38.713Z,2.50
2022-10-26T00:57:49.458Z,2.30
2022-10-26T00:58:00.211Z,2.20
2022-10-26T00:58:10.939Z,2.30
2022-10-26T00:58:21.740Z,2.40
2022-10-26T00:58:32.570Z,2.40
2022-10-26T00:58:43.326Z,2.40
2022-10-26T00:58:54.049Z,2.20
2022-10-26T00:59:04.810Z,2.10
2022-10-26T00:59:15.570Z,2.10
2022-10-26T00:59:26.294Z,2.20
2022-10-26T00:59:39.492Z,2.20
2022-10-26T00:59:50.252Z,2.20
2022-10-26T01:00:01.022Z,2.20
2022-10-26T01:00:11.752Z,2.30
2022-10-26T01:00:23.490Z,2.20
2022-10-26T01:00:35.692Z,2.00
2022-10-26T01:00:48.131Z,1.90
2022-10-26T01:00:58.870Z,2.10
2022-10-26T01:01:09.733Z,2.40
2022-10-26T01:01:20.591Z,2.40
2022-10-26T01:01:32.337Z,2.40
2022-10-26T01:01:44.873Z,2.40
2022-10-26T01:01:55.707Z,2.70
2022-10-26T01:02:06.429Z,2.50
2022-10-26T01:02:18.141Z,2.20
2022-10-26T01:02:29.871Z,2.20
2022-10-26T01:02:40.662Z,2.20
2022-10-26T01:02:53.092Z,2.30
2022-10-26T01:03:04.805Z,2.30
2022-10-26T01:03:15.606Z,2.30
2022-10-26T01:03:26.424Z,2.30
2022-10-26T01:03:38.976Z,2.50
2022-10-26T01:03:49.800Z,2.40
2022-10-26T01:04:00.556Z,2.30
2022-10-26T01:04:11.282Z,2.10
2022-10-26T01:04:22.042Z,2.30
2022-10-26T01:04:34.497Z,2.30
2022-10-26T01:04:46.205Z,2.50
2022-10-26T01:04:57.916Z,2.60
2022-10-26T01:05:08.657Z,2.70
2022-10-26T01:05:19.413Z,2.70
2022-10-26T01:05:31.851Z,2.40
2022-10-26T01:05:42.622Z,2.10
2022-10-26T01:05:53.383Z,2.20
2022-10-26T01:06:04.115Z,2.10
2022-10-26T01:06:14.859Z,2.20
2022-10-26T01:06:28.065Z,2.10
2022-10-26T01:06:40.485Z,2.50
2022-10-26T01:06:53.214Z,2.50
2022-10-26T01:07:04.013Z,2.60
2022-10-26T01:07:16.476Z,2.60
2022-10-26T01:07:27.175Z,2.40
2022-10-26T01:07:38.873Z,2.60
2022-10-26T01:07:49.882Z,2.60
2022-10-26T01:08:00.779Z,2.50
2022-10-26T01:08:11.535Z,2.30
2022-10-26T01:08:22.276Z,2.60
2022-10-26T01:08:33.064Z,2.60
2022-10-26T01:08:45.504Z,2.30
2022-10-26T01:08:57.464Z,2.10
2022-10-26T01:09:08.204Z,2.40
2022-10-26T01:09:18.948Z,2.40
2022-10-26T01:09:31.403Z,2.30
2022-10-26T01:09:42.135Z,2.40
2022-10-26T01:09:52.876Z,2.40
2022-10-26T01:10:06.074Z,2.40
2022-10-26T01:10:16.826Z,2.30
2022-10-26T01:10:27.596Z,2.30
2022-10-26T01:10:38.333Z,2.20
2022-10-26T01:10:50.049Z,2.00
2022-10-26T01:11:04.747Z,1.90
2022-10-26T01:11:18.945Z,1.80
2022-10-26T01:11:30.685Z,2.10
2022-10-26T01:11:41.475Z,2.20
2022-10-26T01:11:54.695Z,2.50
2022-10-26T01:12:05.474Z,2.50
2022-10-26T01:12:16.217Z,2.50
2022-10-26T01:12:26.955Z,2.20
2022-10-26T01:12:37.686Z,2.20
2022-10-26T01:12:48.456Z,2.10
2022-10-26T01:13:00.155Z,2.10
2022-10-26T01:13:12.095Z,2.40
2022-10-26T01:13:23.821Z,2.50
2022-10-26T01:13:34.576Z,2.40
2022-10-26T01:13:45.323Z,2.30
2022-10-26T01:13:57.046Z,2.30
2022-10-26T01:14:07.797Z,2.30
2022-10-26T01:14:18.515Z,2.40
2022-10-26T01:14:29.246Z,2.40
2022-10-26T01:14:39.998Z,2.30
2022-10-26T01:14:51.696Z,2.40
2022-10-26T01:15:03.458Z,2.30
2022-10-26T01:15:14.196Z,2.20
2022-10-26T01:15:24.958Z,2.30
2022-10-26T01:15:35.724Z,2.50
2022-10-26T01:15:48.868Z,2.80
2022-10-26T01:15:59.633Z,2.90
2022-10-26T01:16:12.067Z,2.70
2022-10-26T01:16:22.857Z,2.40
2022-10-26T01:16:36.400Z,2.60
2022-10-26T01:16:49.227Z,3.80
2022-10-26T01:17:00.966Z,3.90
2022-10-26T01:17:15.196Z,2.70
2022-10-26T01:17:27.758Z,2.60
2022-10-26T01:17:40.239Z,2.70
2022-10-26T01:17:51.306Z,2.80
2022-10-26T01:18:02.292Z,2.80
2022-10-26T01:18:13.022Z,2.60
2022-10-26T01:18:23.800Z,2.50
2022-10-26T01:18:34.536Z,2.30
2022-10-26T01:18:46.948Z,2.10
2022-10-26T01:18:57.688Z,2.30
2022-10-26T01:19:08.430Z,2.40
2022-10-26T01:19:20.151Z,2.40
2022-10-26T01:19:32.650Z,2.50
2022-10-26T01:19:43.409Z,2.40
2022-10-26T01:19:55.148Z,2.10
2022-10-26T01:20:06.876Z,1.90
2022-10-26T01:20:17.608Z,2.10
2022-10-26T01:20:28.378Z,2.20
2022-10-26T01:20:40.068Z,2.50
2022-10-26T01:20:50.822Z,2.70
2022-10-26T01:21:01.548Z,2.70
2022-10-26T01:21:13.240Z,2.60
2022-10-26T01:21:26.439Z,2.60
2022-10-26T01:21:39.431Z,2.40
2022-10-26T01:21:51.119Z,2.30
2022-10-26T01:22:01.858Z,2.10
2022-10-26T01:22:12.621Z,2.30
2022-10-26T01:22:24.322Z,2.50
2022-10-26T01:22:35.090Z,2.50
2022-10-26T01:22:45.819Z,2.40
2022-10-26T01:22:56.559Z,2.50
2022-10-26T01:23:07.286Z,2.60
2022-10-26T01:23:18.057Z,2.40
2022-10-26T01:23:28.842Z,2.30
2022-10-26T01:23:40.582Z,2.30
2022-10-26T01:23:51.367Z,2.50
2022-10-26T01:24:02.090Z,2.40
2022-10-26T01:24:12.839Z,2.40
2022-10-26T01:24:23.577Z,2.10
2022-10-26T01:24:35.780Z,2.10
2022-10-26T01:24:46.583Z,2.00
2022-10-26T01:24:57.320Z,2.00
2022-10-26T01:25:08.052Z,2.00
2022-10-26T01:25:18.821Z,2.20
2022-10-26T01:25:29.561Z,2.50
2022-10-26T01:25:40.341Z,2.60
2022-10-26T01:25:51.070Z,2.60
2022-10-26T01:26:01.800Z,2.40
2022-10-26T01:26:13.541Z,2.40
2022-10-26T01:26:25.311Z,2.30
2022-10-26T01:26:37.542Z,2.50
2022-10-26T01:26:49.784Z,2.60
2022-10-26T01:27:00.492Z,2.30
2022-10-26T01:27:11.221Z,2.30
2022-10-26T01:27:21.974Z,2.40
2022-10-26T01:27:34.441Z,2.10
2022-10-26T01:27:46.314Z,2.00
2022-10-26T01:27:57.161Z,2.00
2022-10-26T01:28:09.422Z,2.40
2022-10-26T01:28:21.865Z,2.60
2022-10-26T01:28:32.601Z,2.70
2022-10-26T01:28:43.352Z,2.50
2022-10-26T01:28:54.081Z,2.30
2022-10-26T01:29:04.821Z,2.40
2022-10-26T01:29:15.563Z,2.60
2022-10-26T01:29:27.972Z,2.50
2022-10-26T01:29:39.682Z,2.30
2022-10-26T01:29:50.471Z,2.20
2022-10-26T01:30:02.243Z,2.30
2022-10-26T01:30:12.992Z,2.40
2022-10-26T01:30:23.762Z,2.40
2022-10-26T01:30:35.484Z,2.00
2022-10-26T01:30:47.221Z,2.30
2022-10-26T01:30:57.944Z,2.30
2022-10-26T01:31:10.372Z,2.30
2022-10-26T01:31:22.082Z,2.20
2022-10-26T01:31:32.852Z,2.10
2022-10-26T01:31:45.864Z,2.10
2022-10-26T01:31:58.062Z,2.00
2022-10-26T01:32:08.823Z,2.00
2022-10-26T01:32:19.572Z,2.10
2022-10-26T01:32:30.334Z,2.10
2022-10-26T01:32:41.062Z,1.90
2022-10-26T01:32:51.833Z,2.10
2022-10-26T01:33:02.593Z,2.20
2022-10-26T01:33:13.335Z,2.40
2022-10-26T01:33:25.079Z,2.30
2022-10-26T01:33:35.812Z,2.20
2022-10-26T01:33:46.556Z,2.10
2022-10-26T01:33:57.285Z,1.80
2022-10-26T01:34:08.064Z,2.10
2022-10-26T01:34:18.801Z,2.20
2022-10-26T01:34:29.561Z,2.30
2022-10-26T01:34:40.306Z,2.30
2022-10-26T01:34:51.053Z,2.50
2022-10-26T01:35:01.794Z,2.60
2022-10-26T01:35:13.519Z,2.40
2022-10-26T01:35:25.248Z,2.20
2022-10-26T01:35:37.389Z,2.30
2022-10-26T01:35:48.151Z,2.10
2022-10-26T01:35:58.906Z,2.00
2022-10-26T01:36:11.365Z,2.10
2022-10-26T01:36:22.147Z,2.30
2022-10-26T01:36:43.603Z,2.20
2022-10-26T01:36:56.046Z,2.40
2022-10-26T01:37:08.458Z,2.60
2022-10-26T01:37:19.224Z,2.40
2022-10-26T01:37:30.956Z,2.30
2022-10-26T01:37:41.737Z,2.30
2022-10-26T01:37:54.975Z,2.40
2022-10-26T01:38:07.425Z,2.20
2022-10-26T01:38:18.165Z,2.30
2022-10-26T01:38:31.114Z,2.20
2022-10-26T01:38:43.315Z,2.20
2022-10-26T01:38:55.123Z,2.20
2022-10-26T01:39:05.858Z,2.50
2022-10-26T01:39:16.594Z,2.40
2022-10-26T01:39:27.316Z,2.60
2022-10-26T01:39:38.045Z,2.40
2022-10-26T01:39:50.768Z,2.50
2022-10-26T01:40:01.549Z,2.20
2022-10-26T01:40:12.265Z,2.60
2022-10-26T01:40:22.995Z,2.30
2022-10-26T01:40:34.705Z,2.30
2022-10-26T01:40:45.456Z,2.10
2022-10-26T01:40:56.277Z,2.30
2022-10-26T01:41:07.017Z,2.20
2022-10-26T01:41:17.807Z,2.30
2022-10-26T01:41:28.556Z,2.40
2022-10-26T01:41:39.296Z,2.40
2022-10-26T01:41:50.057Z,2.40
2022-10-26T01:42:02.001Z,2.20
2022-10-26T01:42:14.447Z,2.20
2022-10-26T01:42:25.208Z,2.50
2022-10-26T01:42:35.936Z,2.50
2022-10-26T01:42:47.667Z,2.40
2022-10-26T01:43:00.096Z,2.10
2022-10-26T01:43:10.844Z,2.20
2022-10-26T01:43:21.617Z,2.30
2022-10-26T01:43:32.375Z,2.90
2022-10-26T01:43:43.105Z,2.70
2022-10-26T01:43:53.867Z,2.70
2022-10-26T01:44:04.616Z,2.30
2022-10-26T01:44:15.344Z,2.50
2022-10-26T01:44:27.747Z,2.30
2022-10-26T01:44:38.556Z,2.30
2022-10-26T01:44:49.338Z,2.10
2022-10-26T01:45:00.060Z,2.10
2022-10-26T01:45:13.247Z,2.00
2022-10-26T01:45:24.938Z,2.10
2022-10-26T01:45:35.677Z,2.00
2022-10-26T01:45:46.416Z,2.10
2022-10-26T01:45:58.637Z,2.10
2022-10-26T01:46:09.422Z,2.30
2022-10-26T01:46:30.928Z,2.20
2022-10-26T01:46:41.688Z,1.80
2022-10-26T01:46:52.416Z,2.00
2022-10-26T01:47:03.138Z,1.90
2022-10-26T01:47:13.896Z,1.90
2022-10-26T01:47:24.666Z,2.00
2022-10-26T01:47:35.401Z,2.00
2022-10-26T01:47:46.385Z,2.00
2022-10-26T01:47:57.318Z,1.90
2022-10-26T01:48:09.518Z,1.90
2022-10-26T01:48:21.992Z,2.10
2022-10-26T01:48:32.739Z,2.20
2022-10-26T01:48:44.439Z,2.30
2022-10-26T01:48:55.194Z,2.40
2022-10-26T01:49:05.941Z,2.30
2022-10-26T01:49:17.769Z,2.40
2022-10-26T01:49:28.558Z,2.50
2022-10-26T01:49:39.378Z,2.40
2022-10-26T01:49:50.138Z,2.30
2022-10-26T01:50:00.879Z,2.10
2022-10-26T01:50:13.320Z,2.10
2022-10-26T01:50:24.058Z,2.30
2022-10-26T01:50:34.780Z,2.30
2022-10-26T01:50:45.520Z,2.10
2022-10-26T01:50:57.719Z,2.20
2022-10-26T01:51:09.920Z,2.20
2022-10-26T01:51:22.173Z,2.30
2022-10-26T01:51:32.965Z,1.90
2022-10-26T01:51:45.410Z,2.20
2022-10-26T01:51:56.141Z,2.30
2022-10-26T01:52:06.878Z,2.20
2022-10-26T01:52:19.812Z,2.10
2022-10-26T01:52:32.299Z,2.20
2022-10-26T01:52:44.742Z,2.00
2022-10-26T01:52:55.470Z,1.90
2022-10-26T01:53:06.210Z,2.00
2022-10-26T01:53:16.962Z,2.60
2022-10-26T01:53:27.693Z,2.50
2022-10-26T01:53:39.892Z,2.60
2022-10-26T01:53:50.711Z,2.10
2022-10-26T01:54:01.461Z,2.10
2022-10-26T01:54:13.184Z,2.00
2022-10-26T01:54:23.993Z,2.20
2022-10-26T01:54:34.837Z,2.10
2022-10-26T01:54:47.782Z,2.00
2022-10-26T01:54:58.532Z,2.00
2022-10-26T01:55:09.262Z,2.10
2022-10-26T01:55:21.701Z,2.50
2022-10-26T01:55:32.494Z,2.90
2022-10-26T01:55:44.711Z,2.80
2022-10-26T01:55:55.491Z,2.10
2022-10-26T01:56:06.233Z,2.20
2022-10-26T01:56:17.956Z,2.20
2022-10-26T01:56:29.654Z,2.30
2022-10-26T01:56:42.083Z,2.50
2022-10-26T01:56:53.796Z,2.30
2022-10-26T01:57:04.540Z,2.40
2022-10-26T01:57:15.292Z,2.30
2022-10-26T01:57:26.074Z,2.10
2022-10-26T01:57:36.802Z,1.90
2022-10-26T01:57:48.752Z,2.10
2022-10-26T01:57:59.593Z,2.00
2022-10-26T01:58:10.325Z,2.10
2022-10-26T01:58:21.112Z,2.10
2022-10-26T01:58:34.827Z,2.20
2022-10-26T01:58:48.057Z,2.30
2022-10-26T01:59:00.495Z,2.30
2022-10-26T01:59:11.232Z,2.30
2022-10-26T01:59:23.655Z,2.50
2022-10-26T01:59:34.454Z,2.60
2022-10-26T01:59:45.295Z,2.40
2022-10-26T01:59:56.052Z,2.00
2022-10-26T02:00:07.774Z,1.90
2022-10-26T02:00:18.512Z,2.10
2022-10-26T02:00:29.254Z,2.40
2022-10-26T02:00:40.014Z,2.30
2022-10-26T02:00:50.754Z,1.80
2022-10-26T02:01:03.359Z,1.80
2022-10-26T02:01:15.860Z,2.10
2022-10-26T02:01:27.653Z,2.30
2022-10-26T02:01:38.433Z,2.00
2022-10-26T02:01:50.972Z,1.90
2022-10-26T02:02:01.772Z,2.10
2022-10-26T02:02:12.534Z,2.40
2022-10-26T02:02:24.238Z,2.20
2022-10-26T02:02:34.985Z,2.00
2022-10-26T02:02:46.686Z,1.90
2022-10-26T02:02:59.112Z,2.10
2022-10-26T02:03:09.844Z,2.10
2022-10-26T02:03:22.113Z,2.10
2022-10-26T02:03:32.906Z,1.90
2022-10-26T02:03:43.680Z,1.70
2022-10-26T02:03:54.490Z,1.90
2022-10-26T02:04:05.283Z,2.10
2022-10-26T02:04:16.044Z,2.10
2022-10-26T02:04:26.822Z,2.10
2022-10-26T02:04:37.595Z,2.40
2022-10-26T02:04:48.367Z,2.30
2022-10-26T02:04:59.099Z,2.30
2022-10-26T02:05:09.856Z,2.00
2022-10-26T02:05:20.618Z,1.80
2022-10-26T02:05:33.070Z,1.90
2022-10-26T02:05:43.846Z,2.10
2022-10-26T02:05:54.582Z,2.10
2022-10-26T02:06:05.326Z,2.00
2022-10-26T02:06:17.766Z,1.80
2022-10-26T02:06:28.496Z,2.00
2022-10-26T02:06:39.286Z,2.20
2022-10-26T02:06:50.021Z,2.40
2022-10-26T02:07:00.757Z,2.00
2022-10-26T02:07:11.533Z,1.90
2022-10-26T02:07:22.297Z,1.90
2022-10-26T02:07:34.025Z,2.00
2022-10-26T02:07:47.600Z,1.90
2022-10-26T02:07:58.526Z,1.80
2022-10-26T02:08:10.459Z,1.80
2022-10-26T02:08:21.267Z,2.00
2022-10-26T02:08:32.007Z,2.10
2022-10-26T02:08:42.798Z,2.30
2022-10-26T02:08:57.507Z,2.30
2022-10-26T02:09:08.264Z,2.00
2022-10-26T02:09:19.031Z,2.00
2022-10-26T02:09:29.777Z,2.20
2022-10-26T02:09:40.579Z,2.30
2022-10-26T02:09:51.308Z,2.20
2022-10-26T02:10:02.085Z,2.00
2022-10-26T02:10:12.827Z,2.00
2022-10-26T02:10:24.648Z,2.10
2022-10-26T02:10:35.377Z,2.20
2022-10-26T02:10:47.077Z,2.20
2022-10-26T02:10:57.818Z,1.90
2022-10-26T02:11:08.577Z,2.10
2022-10-26T02:11:20.998Z,2.10
2022-10-26T02:11:31.769Z,1.90
2022-10-26T02:11:42.540Z,2.00
2022-10-26T02:11:54.240Z,2.00
2022-10-26T02:12:04.975Z,2.30
2022-10-26T02:12:15.709Z,2.40
2022-10-26T02:12:28.137Z,2.30
2022-10-26T02:12:38.917Z,2.20
2022-10-26T02:12:49.718Z,2.00
2022-10-26T02:13:02.928Z,2.30
2022-10-26T02:13:14.649Z,2.10
2022-10-26T02:13:27.859Z,2.00
2022-10-26T02:13:39.578Z,2.10
2022-10-26T02:13:50.348Z,2.10
2022-10-26T02:14:02.816Z,2.10
2022-10-26T02:14:24.230Z,2.10
2022-10-26T02:14:35.939Z,2.10
2022-10-26T02:14:46.680Z,2.10
2022-10-26T02:14:58.652Z,2.20
2022-10-26T02:15:09.378Z,2.10
2022-10-26T02:15:20.129Z,2.10
2022-10-26T02:15:30.896Z,2.00
2022-10-26T02:15:41.679Z,2.00
2022-10-26T02:15:52.421Z,2.20
2022-10-26T02:16:04.117Z,2.10
2022-10-26T02:16:14.879Z,2.10
2022-10-26T02:16:26.626Z,1.80
2022-10-26T02:16:37.369Z,1.90
2022-10-26T02:16:49.085Z,2.10
2022-10-26T02:16:59.821Z,2.10
2022-10-26T02:17:11.520Z,2.20
2022-10-26T02:17:22.268Z,1.80
2022-10-26T02:17:33.019Z,1.90
2022-10-26T02:17:43.818Z,1.90
2022-10-26T02:17:55.509Z,2.10
2022-10-26T02:18:07.940Z,2.20
2022-10-26T02:18:18.690Z,2.20
2022-10-26T02:18:30.900Z,2.00
2022-10-26T02:18:43.330Z,2.30
2022-10-26T02:18:54.108Z,2.20
2022-10-26T02:19:05.780Z,2.20
2022-10-26T02:19:20.009Z,1.90
2022-10-26T02:19:30.810Z,1.90
2022-10-26T02:19:41.583Z,2.10
2022-10-26T02:19:52.353Z,2.30
2022-10-26T02:20:03.089Z,2.10
2022-10-26T02:20:13.823Z,2.10
2022-10-26T02:20:25.565Z,1.80
2022-10-26T02:20:37.280Z,2.10
2022-10-26T02:20:49.739Z,2.10
2022-10-26T02:21:01.533Z,2.40
2022-10-26T02:21:13.281Z,2.30
2022-10-26T02:21:24.045Z,2.20
2022-10-26T02:21:34.788Z,1.70
2022-10-26T02:21:45.521Z,1.60
2022-10-26T02:21:57.240Z,1.70
2022-10-26T02:22:08.952Z,2.00
2022-10-26T02:22:19.741Z,2.00
2022-10-26T02:22:32.203Z,1.90
2022-10-26T02:22:43.924Z,2.10
2022-10-26T02:22:54.663Z,2.20
2022-10-26T02:23:06.401Z,2.30
2022-10-26T02:23:18.132Z,2.30
2022-10-26T02:23:31.333Z,2.10
2022-10-26T02:23:43.563Z,2.20
2022-10-26T02:23:54.347Z,2.30
2022-10-26T02:24:05.194Z,2.10
2022-10-26T02:24:15.938Z,2.20
2022-10-26T02:24:27.664Z,2.10
2022-10-26T02:24:38.424Z,1.90
2022-10-26T02:24:50.852Z,1.90
2022-10-26T02:25:01.582Z,2.00
2022-10-26T02:25:12.332Z,1.90
2022-10-26T02:25:24.022Z,2.10
2022-10-26T02:25:35.744Z,2.00
2022-10-26T02:25:46.501Z,2.20
2022-10-26T02:25:57.253Z,2.20
2022-10-26T02:26:10.184Z,2.20
2022-10-26T02:26:22.410Z,1.80
2022-10-26T02:26:34.111Z,1.90
2022-10-26T02:26:44.883Z,2.00
2022-10-26T02:26:55.635Z,2.20
2022-10-26T02:27:06.375Z,2.00
2022-10-26T02:27:17.093Z,1.90
2022-10-26T02:27:27.827Z,2.10
2022-10-26T02:27:38.583Z,1.90
2022-10-26T02:27:49.612Z,2.00
2022-10-26T02:28:00.492Z,2.00
2022-10-26T02:28:11.243Z,2.50
2022-10-26T02:28:22.044Z,2.30
2022-10-26T02:28:32.784Z,2.10
2022-10-26T02:28:43.554Z,1.90
2022-10-26T02:28:55.277Z,2.10
2022-10-26T02:29:07.717Z,2.10
2022-10-26T02:29:18.446Z,1.70
2022-10-26T02:29:30.670Z,2.00
2022-10-26T02:29:43.904Z,2.20
2022-10-26T02:29:54.635Z,2.50
2022-10-26T02:30:05.394Z,2.20
2022-10-26T02:30:16.164Z,2.00
2022-10-26T02:30:26.915Z,2.00
2022-10-26T02:30:37.656Z,2.00
2022-10-26T02:30:48.402Z,1.90
2022-10-26T02:30:59.145Z,1.80
2022-10-26T02:31:09.949Z,1.90
2022-10-26T02:31:23.148Z,2.10
2022-10-26T02:31:35.401Z,2.20
2022-10-26T02:31:46.143Z,1.90